Kensington, Canada
Current Conditions -  °F | °C
As of 5:00 PM on Saturday 22 Nov 2014 (Local Time) from CYYG Reporting Station
Overcast Overcast  
Wind Chill: 16°   Ceiling: 6100
Heat Index: 28°   Visibility: 15mi
Dew Point: 16°   Wind: 18mph
Humidity: 59%   Direction: 230°SW
Pressure: 29.93"   Gusts: 25mph
Location:  46.43°N, 63.65°W
Report Text: CYYG 222100Z 23016G22KT 15SM BKN061 OVC095 M02/M09 A2993 RMK SC5AS3 SLP137
Loading
Personal Weather Stations






























Interactive Weather Map New forecast layout! Learn more

10-Day Weather Forecast

Advertisements
Track Severe Weather on mobile